Impacts TAF Board
For situational awareness. Not to be used for flight planning purposes.
IDs:

KPDX - Portland Intl Arpt, OR, US

Issued at 1120 UTC 01 Jun 2023
Updated at 1142 UTC 01 Jun 2023
Potential Impact None Slight Moderate High
Time1053Z 01/12Z 01/13Z 01/14Z 01/15Z 01/16Z 01/17Z 01/18Z 01/19Z 01/20Z 01/21Z 01/22Z 01/23Z 02/00Z>>
Type OBS PRVL PRVL PRVL PRVL PRVL PRVL PRVL PRVL PRVL PRVL PRVL PRVL PRVL
VIS 10 >6 >6 >6 >6 >6 >6 >6 >6 >6 >6 >6 >6 >6
CIG -- -- -- -- -- -- -- -- -- -- -- -- -- --
Cover CLR SCT SCT SCT SCT SCT SCT SCT SCT SCT SCT SKC SKC SKC
FltCat VFR VFR VFR VFR VFR VFR VFR VFR VFR VFR VFR VFR VFR VFR
WX -- -- -- -- -- -- -- -- -- -- -- -- -- --
WDir 320 320 320 320 320 320 320 320 320 320 320 330 330 330
WSpd 5 5 5 5 5 5 5 5 5 5 5 7 7 7
WGst -- -- -- -- -- -- -- -- -- -- -- -- -- --
WSHgt -- -- -- -- -- -- -- -- -- -- -- -- -- --
WSDir -- -- -- -- -- -- -- -- -- -- -- -- -- --
WSSpd -- -- -- -- -- -- -- -- -- -- -- -- -- --

NOTE: LAMP data beyond the time of the TAF data is denoted as LAMP in Type and colored magenta.

Raw TAF
KPDX 011120Z 0112/0212 32005KT P6SM SCT060
  FM012200 33007KT P6SM SKC
  FM020100 34009KT P6SM SKC
  FM020900 VRB04KT P6SM SKC


Raw METAR
KPDX 011053Z 32005KT 10SM CLR 09/06 A3010 RMK AO2 SLP191 T00940056
KPDX 010953Z 33005KT 10SM CLR 11/06 A3010 RMK AO2 SLP190 T01060056
KPDX 010853Z 32006KT 10SM CLR 11/06 A3010 RMK AO2 SLP190 T01060056 50000

METAR Board
Radar Display
Forecast Discussion

For situational awareness. Not to be used for flight planning purposes.